createdAt,value
2018-12-27T00:00:47.960Z,7.4
2018-12-27T00:01:50.285Z,7.3
2018-12-27T00:02:56.442Z,7.4
2018-12-27T00:03:58.484Z,7.3
2018-12-27T00:05:00.555Z,7.4
2018-12-27T00:06:02.603Z,7.4
2018-12-27T00:07:04.640Z,7.4
2018-12-27T00:08:06.844Z,7.4
2018-12-27T00:09:09.306Z,7.3
2018-12-27T00:10:11.670Z,7.3
2018-12-27T00:11:13.730Z,7.3
2018-12-27T00:12:16.055Z,7.3
2018-12-27T00:13:18.093Z,7.3
2018-12-27T00:14:20.140Z,7.3
2018-12-27T00:15:22.455Z,7.3
2018-12-27T00:16:24.501Z,7.3
2018-12-27T00:17:26.529Z,7.3
2018-12-27T00:18:29.248Z,7.3
2018-12-27T00:19:31.423Z,7.3
2018-12-27T00:20:33.474Z,7.3
2018-12-27T00:21:35.618Z,7.3
2018-12-27T00:22:37.832Z,7.3
2018-12-27T00:23:40.057Z,7.3
2018-12-27T00:24:42.180Z,7.2
2018-12-27T00:25:44.553Z,7.2
2018-12-27T00:26:46.910Z,7.2
2018-12-27T00:27:49.245Z,7.3
2018-12-27T00:28:51.306Z,7.2
2018-12-27T00:29:53.715Z,7.2
2018-12-27T00:30:55.753Z,7.2
2018-12-27T00:31:57.827Z,7.2
2018-12-27T00:33:04.761Z,7.2
2018-12-27T00:34:07.211Z,7.2
2018-12-27T00:35:09.266Z,7.2
2018-12-27T00:36:11.325Z,7.2
2018-12-27T00:37:13.376Z,7.2
2018-12-27T00:38:15.423Z,7.2
2018-12-27T00:39:17.479Z,7.2
2018-12-27T00:40:19.523Z,7.2
2018-12-27T00:41:21.837Z,7.2
2018-12-27T00:42:23.885Z,7.2
2018-12-27T00:43:26.015Z,7.2
2018-12-27T00:44:28.337Z,7.2
2018-12-27T00:45:30.398Z,7.2
2018-12-27T00:46:32.460Z,7.2
2018-12-27T00:47:34.508Z,7.1
2018-12-27T00:48:36.553Z,7.1
2018-12-27T00:49:38.603Z,7.1
2018-12-27T00:50:40.644Z,7.1
2018-12-27T00:51:42.745Z,7.1
2018-12-27T00:52:44.799Z,7.1
2018-12-27T00:53:46.833Z,7.1
2018-12-27T00:54:48.873Z,7.1
2018-12-27T00:55:50.915Z,7.1
2018-12-27T00:56:53.008Z,7.1
2018-12-27T00:57:55.056Z,7.1
2018-12-27T00:58:57.085Z,7.1
2018-12-27T00:59:59.505Z,7.1
2018-12-27T01:01:01.542Z,7.1
2018-12-27T01:02:03.591Z,7.1
2018-12-27T01:03:13.120Z,7.1
2018-12-27T01:04:15.172Z,7.1
2018-12-27T01:05:17.522Z,7.1
2018-12-27T01:06:19.842Z,7.1
2018-12-27T01:07:21.900Z,7.1
2018-12-27T01:08:23.939Z,7.1
2018-12-27T01:09:25.991Z,7.1
2018-12-27T01:10:28.029Z,7.1
2018-12-27T01:11:30.053Z,7.1
2018-12-27T01:12:32.101Z,7.1
2018-12-27T01:13:34.133Z,7.1
2018-12-27T01:14:36.179Z,7.1
2018-12-27T01:15:38.236Z,7.1
2018-12-27T01:16:40.606Z,7
2018-12-27T01:17:42.642Z,7
2018-12-27T01:18:44.975Z,7.1
2018-12-27T01:19:47.011Z,7
2018-12-27T01:20:49.060Z,7
2018-12-27T01:21:51.372Z,7
2018-12-27T01:22:53.418Z,7
2018-12-27T01:23:55.455Z,7
2018-12-27T01:24:57.877Z,7
2018-12-27T01:25:59.915Z,7
2018-12-27T01:27:02.261Z,7
2018-12-27T01:28:04.308Z,7
2018-12-27T01:29:06.359Z,7
2018-12-27T01:30:08.399Z,7
2018-12-27T01:31:10.454Z,7
2018-12-27T01:32:12.490Z,7
2018-12-27T01:33:19.964Z,7
2018-12-27T01:34:22.326Z,7
2018-12-27T01:35:24.386Z,7
2018-12-27T01:36:26.438Z,7
2018-12-27T01:37:28.768Z,7
2018-12-27T01:38:30.827Z,7
2018-12-27T01:39:33.168Z,7
2018-12-27T01:40:35.227Z,7
2018-12-27T01:41:37.251Z,6.9
2018-12-27T01:42:39.373Z,6.9
2018-12-27T01:43:41.398Z,7
2018-12-27T01:44:43.457Z,7
2018-12-27T01:45:45.498Z,7
2018-12-27T01:46:47.556Z,6.9
2018-12-27T01:47:49.585Z,6.9
2018-12-27T01:48:51.720Z,7
2018-12-27T01:49:53.745Z,7
2018-12-27T01:50:55.791Z,7
2018-12-27T01:51:57.835Z,7
2018-12-27T01:52:59.880Z,6.9
2018-12-27T01:54:01.944Z,6.9
2018-12-27T01:55:03.980Z,6.9
2018-12-27T01:56:06.037Z,6.9
2018-12-27T01:57:08.350Z,6.9
2018-12-27T01:58:10.391Z,6.9
2018-12-27T01:59:12.728Z,6.9
2018-12-27T02:00:14.775Z,6.9
2018-12-27T02:01:16.817Z,6.9
2018-12-27T02:02:18.858Z,6.9
2018-12-27T02:03:27.626Z,6.9
2018-12-27T02:04:29.706Z,6.9
2018-12-27T02:05:31.749Z,6.9
2018-12-27T02:06:33.804Z,6.9
2018-12-27T02:07:35.855Z,6.9
2018-12-27T02:08:37.906Z,6.9
2018-12-27T02:09:39.956Z,6.9
2018-12-27T02:10:42.400Z,6.9
2018-12-27T02:11:44.444Z,6.9
2018-12-27T02:12:46.548Z,6.8
2018-12-27T02:13:48.587Z,6.9
2018-12-27T02:14:50.637Z,6.9
2018-12-27T02:15:52.700Z,6.9
2018-12-27T02:16:54.749Z,6.9
2018-12-27T02:17:56.781Z,6.9
2018-12-27T02:18:58.829Z,6.9
2018-12-27T02:20:00.940Z,6.8
2018-12-27T02:21:02.997Z,6.8
2018-12-27T02:22:05.033Z,6.8
2018-12-27T02:23:07.099Z,6.8
2018-12-27T02:24:09.215Z,6.8
2018-12-27T02:25:11.266Z,6.8
2018-12-27T02:26:13.696Z,6.8
2018-12-27T02:27:15.741Z,6.8
2018-12-27T02:28:17.794Z,6.8
2018-12-27T02:29:19.851Z,6.8
2018-12-27T02:30:22.480Z,6.8
2018-12-27T02:31:24.836Z,6.8
2018-12-27T02:32:26.896Z,6.7
2018-12-27T02:33:36.662Z,6.7
2018-12-27T02:34:38.730Z,6.7
2018-12-27T02:35:41.066Z,6.7
2018-12-27T02:36:43.501Z,6.7
2018-12-27T02:37:45.556Z,6.7
2018-12-27T02:38:47.612Z,6.8
2018-12-27T02:39:49.641Z,6.7
2018-12-27T02:40:52.263Z,6.8
2018-12-27T02:41:54.396Z,6.7
2018-12-27T02:42:56.741Z,6.7
2018-12-27T02:43:58.805Z,6.7
2018-12-27T02:45:00.954Z,6.7
2018-12-27T02:46:02.984Z,6.7
2018-12-27T02:47:05.042Z,6.6
2018-12-27T02:48:07.180Z,6.6
2018-12-27T02:49:09.260Z,6.6
2018-12-27T02:50:11.297Z,6.6
2018-12-27T02:51:13.349Z,6.7
2018-12-27T02:52:15.688Z,6.6
2018-12-27T02:53:17.781Z,6.6
2018-12-27T02:54:20.409Z,6.6
2018-12-27T02:55:22.588Z,6.6
2018-12-27T02:56:24.621Z,6.7
2018-12-27T02:57:26.664Z,6.6
2018-12-27T02:58:28.719Z,6.6
2018-12-27T02:59:30.773Z,6.6
2018-12-27T03:00:33.205Z,6.6
2018-12-27T03:01:35.543Z,6.6
2018-12-27T03:02:38.266Z,6.5
2018-12-27T03:03:45.368Z,6.5
2018-12-27T03:04:47.983Z,6.6
2018-12-27T03:05:50.036Z,6.5
2018-12-27T03:06:52.076Z,6.5
2018-12-27T03:07:54.122Z,6.5
2018-12-27T03:08:56.461Z,6.5
2018-12-27T03:09:58.527Z,6.5
2018-12-27T03:11:00.876Z,6.5
2018-12-27T03:12:02.932Z,6.5
2018-12-27T03:13:05.031Z,6.5
2018-12-27T03:14:07.089Z,6.5
2018-12-27T03:15:09.156Z,6.5
2018-12-27T03:16:11.203Z,6.5
2018-12-27T03:17:14.195Z,6.4
2018-12-27T03:18:16.232Z,6.4
2018-12-27T03:19:18.272Z,6.4
2018-12-27T03:20:21.024Z,6.4
2018-12-27T03:21:23.153Z,6.4
2018-12-27T03:22:25.185Z,6.4
2018-12-27T03:23:27.248Z,6.4
2018-12-27T03:24:29.587Z,6.4
2018-12-27T03:25:31.630Z,6.4
2018-12-27T03:26:34.650Z,6.4
2018-12-27T03:27:37.082Z,6.4
2018-12-27T03:28:39.118Z,6.3
2018-12-27T03:29:41.168Z,6.3
2018-12-27T03:30:43.240Z,6.3
2018-12-27T03:31:46.019Z,6.3
2018-12-27T03:32:48.651Z,6.3
2018-12-27T03:33:54.353Z,6.3
2018-12-27T03:34:56.403Z,6.3
2018-12-27T03:35:58.453Z,6.3
2018-12-27T03:37:00.783Z,6.3
2018-12-27T03:38:02.834Z,6.3
2018-12-27T03:39:04.884Z,6.3
2018-12-27T03:40:06.919Z,6.3
2018-12-27T03:41:08.959Z,6.3
2018-12-27T03:42:11.284Z,6.3
2018-12-27T03:43:13.339Z,6.3
2018-12-27T03:44:15.670Z,6.2
2018-12-27T03:45:17.733Z,6.2
2018-12-27T03:46:19.768Z,6.2
2018-12-27T03:47:21.808Z,6.2
2018-12-27T03:48:24.143Z,6.1
2018-12-27T03:49:26.805Z,6.2
2018-12-27T03:50:29.135Z,6.2
2018-12-27T03:51:31.207Z,6.1
2018-12-27T03:52:33.254Z,6.1
2018-12-27T03:53:35.686Z,6.1
2018-12-27T03:54:38.109Z,6.1
2018-12-27T03:55:40.559Z,6.1
2018-12-27T03:56:42.606Z,6.1
2018-12-27T03:57:44.665Z,6.1
2018-12-27T03:58:46.743Z,6.1
2018-12-27T03:59:49.080Z,6.1
2018-12-27T04:00:51.425Z,6.1
2018-12-27T04:01:53.472Z,6.1
2018-12-27T04:02:55.509Z,6
2018-12-27T04:04:03.270Z,6
2018-12-27T04:05:05.331Z,6
2018-12-27T04:06:07.751Z,6
2018-12-27T04:07:09.888Z,6
2018-12-27T04:08:12.323Z,6
2018-12-27T04:09:14.663Z,6
2018-12-27T04:10:16.693Z,6
2018-12-27T04:11:18.844Z,6
2018-12-27T04:12:20.878Z,6
2018-12-27T04:13:22.942Z,5.9
2018-12-27T04:14:25.005Z,6
2018-12-27T04:15:27.123Z,5.9
2018-12-27T04:16:29.167Z,5.9
2018-12-27T04:17:31.226Z,5.9
2018-12-27T04:18:33.581Z,5.9
2018-12-27T04:19:35.924Z,5.9
2018-12-27T04:20:37.959Z,5.9
2018-12-27T04:21:40.019Z,5.9
2018-12-27T04:22:42.361Z,5.9
2018-12-27T04:23:44.406Z,5.9
2018-12-27T04:24:46.443Z,5.9
2018-12-27T04:25:48.776Z,5.9
2018-12-27T04:26:50.837Z,5.9
2018-12-27T04:27:52.873Z,5.9
2018-12-27T04:28:55.209Z,5.9
2018-12-27T04:29:57.579Z,5.8
2018-12-27T04:31:00.197Z,5.8
2018-12-27T04:32:02.267Z,5.8
2018-12-27T04:33:04.313Z,5.9
2018-12-27T04:34:11.087Z,5.8
2018-12-27T04:35:13.132Z,5.8
2018-12-27T04:36:15.191Z,5.8
2018-12-27T04:37:17.615Z,5.8
2018-12-27T04:38:19.669Z,5.8
2018-12-27T04:39:21.730Z,5.8
2018-12-27T04:40:24.080Z,5.8
2018-12-27T04:41:26.417Z,5.8
2018-12-27T04:42:28.829Z,5.8
2018-12-27T04:43:30.873Z,5.8
2018-12-27T04:44:32.917Z,5.8
2018-12-27T04:45:35.251Z,5.7
2018-12-27T04:46:37.574Z,5.8
2018-12-27T04:47:39.651Z,5.8
2018-12-27T04:48:41.701Z,5.8
2018-12-27T04:49:44.131Z,5.8
2018-12-27T04:50:46.164Z,5.8
2018-12-27T04:51:48.589Z,5.8
2018-12-27T04:52:51.415Z,5.8
2018-12-27T04:53:53.462Z,5.8
2018-12-27T04:54:55.504Z,5.8
2018-12-27T04:55:57.833Z,5.8
2018-12-27T04:56:59.876Z,5.8
2018-12-27T04:58:02.191Z,5.7
2018-12-27T04:59:04.528Z,5.7
2018-12-27T05:00:07.256Z,5.7
2018-12-27T05:01:09.321Z,5.7
2018-12-27T05:02:11.355Z,5.7
2018-12-27T05:03:13.387Z,5.7
2018-12-27T05:04:19.559Z,5.7
2018-12-27T05:05:21.891Z,5.7
2018-12-27T05:06:23.931Z,5.7
2018-12-27T05:07:25.956Z,5.7
2018-12-27T05:08:27.993Z,5.7
2018-12-27T05:09:30.052Z,5.7
2018-12-27T05:10:32.100Z,5.7
2018-12-27T05:11:34.159Z,5.7
2018-12-27T05:12:36.201Z,5.7
2018-12-27T05:13:38.521Z,5.7
2018-12-27T05:14:40.701Z,5.6
2018-12-27T05:15:42.739Z,5.6
2018-12-27T05:16:44.781Z,5.6
2018-12-27T05:17:46.808Z,5.7
2018-12-27T05:18:48.905Z,5.7
2018-12-27T05:19:50.954Z,5.7
2018-12-27T05:20:53.030Z,5.7
2018-12-27T05:21:55.070Z,5.6
2018-12-27T05:22:57.410Z,5.7
2018-12-27T05:23:59.467Z,5.6
2018-12-27T05:25:01.506Z,5.6
2018-12-27T05:26:03.567Z,5.7
2018-12-27T05:27:05.889Z,5.6
2018-12-27T05:28:07.939Z,5.7
2018-12-27T05:29:10.001Z,5.6
2018-12-27T05:30:12.051Z,5.7
2018-12-27T05:31:14.087Z,5.7
2018-12-27T05:32:16.125Z,5.7
2018-12-27T05:33:18.170Z,5.6
2018-12-27T05:34:27.446Z,5.6
2018-12-27T05:35:29.513Z,5.6
2018-12-27T05:36:31.861Z,5.6
2018-12-27T05:37:34.217Z,5.6
2018-12-27T05:38:36.559Z,5.6
2018-12-27T05:39:38.592Z,5.6
2018-12-27T05:40:40.640Z,5.6
2018-12-27T05:41:42.686Z,5.7
2018-12-27T05:42:45.111Z,5.6
2018-12-27T05:43:47.536Z,5.6
2018-12-27T05:44:49.579Z,5.6
2018-12-27T05:45:51.911Z,5.6
2018-12-27T05:46:53.958Z,5.6
2018-12-27T05:47:56.373Z,5.6
2018-12-27T05:48:58.420Z,5.6
2018-12-27T05:50:00.457Z,5.6
2018-12-27T05:51:02.499Z,5.6
2018-12-27T05:52:04.555Z,5.6
2018-12-27T05:53:06.588Z,5.6
2018-12-27T05:54:08.647Z,5.6
2018-12-27T05:55:10.677Z,5.6
2018-12-27T05:56:12.714Z,5.5
2018-12-27T05:57:14.761Z,5.6
2018-12-27T05:58:16.816Z,5.6
2018-12-27T05:59:18.871Z,5.6
2018-12-27T06:00:20.894Z,5.6
2018-12-27T06:01:22.939Z,5.5
2018-12-27T06:02:24.986Z,5.5
2018-12-27T06:03:27.033Z,5.5
2018-12-27T06:04:35.229Z,5.6
2018-12-27T06:05:37.274Z,5.6
2018-12-27T06:06:39.319Z,5.5
2018-12-27T06:07:41.364Z,5.5
2018-12-27T06:08:43.408Z,5.5
2018-12-27T06:09:45.459Z,5.6
2018-12-27T06:10:47.518Z,5.5
2018-12-27T06:11:49.552Z,5.6
2018-12-27T06:12:51.614Z,5.7
2018-12-27T06:13:53.645Z,5.6
2018-12-27T06:14:55.980Z,5.5
2018-12-27T06:15:58.021Z,5.5
2018-12-27T06:17:00.061Z,5.5
2018-12-27T06:18:02.106Z,5.6
2018-12-27T06:19:04.135Z,5.5
2018-12-27T06:20:06.180Z,5.5
2018-12-27T06:21:08.234Z,5.5
2018-12-27T06:22:10.291Z,5.5
2018-12-27T06:23:12.333Z,5.5
2018-12-27T06:24:14.405Z,5.5
2018-12-27T06:25:17.125Z,5.5
2018-12-27T06:26:19.190Z,5.5
2018-12-27T06:27:21.670Z,5.4
2018-12-27T06:28:23.733Z,5.5
2018-12-27T06:29:25.877Z,5.5
2018-12-27T06:30:27.944Z,5.4
2018-12-27T06:31:29.984Z,5.5
2018-12-27T06:32:32.335Z,5.5
2018-12-27T06:33:34.761Z,5.4
2018-12-27T06:34:42.622Z,5.4
2018-12-27T06:35:44.686Z,5.4
2018-12-27T06:36:46.738Z,5.5
2018-12-27T06:37:48.783Z,5.4
2018-12-27T06:38:50.836Z,5.5
2018-12-27T06:39:52.879Z,5.5
2018-12-27T06:40:54.928Z,5.5
2018-12-27T06:41:56.970Z,5.5
2018-12-27T06:42:59.077Z,5.4
2018-12-27T06:44:01.123Z,5.4
2018-12-27T06:45:03.554Z,5.4
2018-12-27T06:46:05.588Z,5.4
2018-12-27T06:47:07.622Z,5.4
2018-12-27T06:48:09.652Z,5.4
2018-12-27T06:49:12.409Z,5.4
2018-12-27T06:50:14.865Z,5.4
2018-12-27T06:51:16.906Z,5.5
2018-12-27T06:52:19.238Z,5.4
2018-12-27T06:53:21.282Z,5.4
2018-12-27T06:54:23.398Z,5.4
2018-12-27T06:55:25.442Z,5.4
2018-12-27T06:56:27.496Z,5.4
2018-12-27T06:57:29.557Z,5.4
2018-12-27T06:58:38.914Z,5.4
2018-12-27T06:59:40.957Z,5.4
2018-12-27T07:00:43.005Z,5.4
2018-12-27T07:01:45.059Z,5.4
2018-12-27T07:02:47.118Z,5.4
2018-12-27T07:03:49.170Z,5.4
2018-12-27T07:04:51.496Z,5.4
2018-12-27T07:05:53.834Z,5.4
2018-12-27T07:06:56.270Z,5.5
2018-12-27T07:07:58.630Z,5.4
2018-12-27T07:09:00.693Z,5.4
2018-12-27T07:10:02.756Z,5.4
2018-12-27T07:11:04.780Z,5.4
2018-12-27T07:12:06.830Z,5.4
2018-12-27T07:13:09.257Z,5.4
2018-12-27T07:14:11.307Z,5.4
2018-12-27T07:15:13.380Z,5.4
2018-12-27T07:16:15.529Z,5.4
2018-12-27T07:17:17.863Z,5.4
2018-12-27T07:18:20.207Z,5.4
2018-12-27T07:19:22.239Z,5.4
2018-12-27T07:20:24.578Z,5.4
2018-12-27T07:21:26.618Z,5.5
2018-12-27T07:22:28.664Z,5.4
2018-12-27T07:23:31.093Z,5.4
2018-12-27T07:24:33.516Z,5.4
2018-12-27T07:25:35.562Z,5.4
2018-12-27T07:26:37.598Z,5.4
2018-12-27T07:27:39.637Z,5.4
2018-12-27T07:28:41.684Z,5.4
2018-12-27T07:29:43.718Z,5.5
2018-12-27T07:30:45.761Z,5.5
2018-12-27T07:31:47.821Z,5.4
2018-12-27T07:32:49.854Z,5.4
2018-12-27T07:33:51.892Z,5.4
2018-12-27T07:34:57.700Z,5.4
2018-12-27T07:35:59.763Z,5.4
2018-12-27T07:37:01.809Z,5.4
2018-12-27T07:38:03.872Z,5.4
2018-12-27T07:39:05.918Z,5.4
2018-12-27T07:40:08.346Z,5.4
2018-12-27T07:41:10.388Z,5.4
2018-12-27T07:42:12.443Z,5.4
2018-12-27T07:43:14.783Z,5.4
2018-12-27T07:44:17.516Z,5.4
2018-12-27T07:45:19.843Z,5.4
2018-12-27T07:46:21.900Z,5.5
2018-12-27T07:47:23.947Z,5.5
2018-12-27T07:48:25.988Z,5.5
2018-12-27T07:49:28.067Z,5.5
2018-12-27T07:50:30.182Z,5.4
2018-12-27T07:51:32.241Z,5.4
2018-12-27T07:52:34.580Z,5.4
2018-12-27T07:53:36.631Z,5.4
2018-12-27T07:54:38.725Z,5.5
2018-12-27T07:55:41.175Z,5.5
2018-12-27T07:56:43.204Z,5.4
2018-12-27T07:57:45.264Z,5.5
2018-12-27T07:58:47.350Z,5.4
2018-12-27T07:59:49.690Z,5.4
2018-12-27T08:00:51.725Z,5.5
2018-12-27T08:01:53.764Z,5.5
2018-12-27T08:02:55.822Z,5.4
2018-12-27T08:03:57.869Z,5.5
2018-12-27T08:05:05.483Z,5.6
2018-12-27T08:06:08.199Z,5.6
2018-12-27T08:07:10.285Z,5.5
2018-12-27T08:08:12.759Z,5.5
2018-12-27T08:09:15.091Z,5.5
2018-12-27T08:10:17.414Z,5.6
2018-12-27T08:11:19.470Z,5.6
2018-12-27T08:12:21.511Z,5.6
2018-12-27T08:13:23.556Z,5.6
2018-12-27T08:14:25.633Z,5.5
2018-12-27T08:15:27.759Z,5.6
2018-12-27T08:16:29.797Z,5.5
2018-12-27T08:17:31.852Z,5.5
2018-12-27T08:18:34.217Z,5.5
2018-12-27T08:19:36.255Z,5.5
2018-12-27T08:20:38.300Z,5.5
2018-12-27T08:21:40.355Z,5.5
2018-12-27T08:22:42.413Z,5.5
2018-12-27T08:23:44.853Z,5.5
2018-12-27T08:24:47.169Z,5.5
2018-12-27T08:25:49.230Z,5.5
2018-12-27T08:26:51.547Z,5.5
2018-12-27T08:27:53.611Z,5.5
2018-12-27T08:28:57.320Z,5.5
2018-12-27T08:29:59.366Z,5.5
2018-12-27T08:31:01.421Z,5.5
2018-12-27T08:32:03.546Z,5.5
2018-12-27T08:33:05.599Z,5.5
2018-12-27T08:34:07.658Z,5.5
2018-12-27T08:35:13.246Z,5.5
2018-12-27T08:36:15.286Z,5.5
2018-12-27T08:37:17.314Z,5.5
2018-12-27T08:38:19.430Z,5.5
2018-12-27T08:39:21.699Z,5.5
2018-12-27T08:40:23.984Z,5.5
2018-12-27T08:41:26.426Z,5.5
2018-12-27T08:42:28.572Z,5.5
2018-12-27T08:43:30.718Z,5.5
2018-12-27T08:44:32.847Z,5.5
2018-12-27T08:45:34.972Z,5.5
2018-12-27T08:46:37.110Z,5.5
2018-12-27T08:47:39.232Z,5.5
2018-12-27T08:48:41.375Z,5.5
2018-12-27T08:49:44.286Z,5.5
2018-12-27T08:50:46.776Z,5.5
2018-12-27T08:51:48.925Z,5.6
2018-12-27T08:52:51.060Z,5.5
2018-12-27T08:53:53.193Z,5.5
2018-12-27T08:54:55.350Z,5.5
2018-12-27T08:55:57.472Z,5.5
2018-12-27T08:56:59.887Z,5.5
2018-12-27T08:58:02.082Z,5.5
2018-12-27T08:59:04.524Z,5.5
2018-12-27T09:00:06.660Z,5.5
2018-12-27T09:01:09.071Z,5.5
2018-12-27T09:02:11.223Z,5.5
2018-12-27T09:03:13.365Z,5.6
2018-12-27T09:04:15.510Z,5.6
2018-12-27T09:05:20.765Z,5.5
2018-12-27T09:06:22.908Z,5.5
2018-12-27T09:07:25.445Z,5.5
2018-12-27T09:08:27.568Z,5.5
2018-12-27T09:09:29.697Z,5.5
2018-12-27T09:10:32.127Z,5.5
2018-12-27T09:11:34.277Z,5.5
2018-12-27T09:12:37.307Z,5.5
2018-12-27T09:13:39.834Z,5.6
2018-12-27T09:14:41.956Z,5.5
2018-12-27T09:15:44.081Z,5.5
2018-12-27T09:16:46.220Z,5.5
2018-12-27T09:17:48.367Z,5.5
2018-12-27T09:18:50.508Z,5.5
2018-12-27T09:19:52.665Z,5.4
2018-12-27T09:20:54.801Z,5.5
2018-12-27T09:21:57.228Z,5.4
2018-12-27T09:22:59.362Z,5.4
2018-12-27T09:24:01.502Z,5.4
2018-12-27T09:25:03.661Z,5.4
2018-12-27T09:26:05.806Z,5.5
2018-12-27T09:27:08.229Z,5.5
2018-12-27T09:28:10.359Z,5.5
2018-12-27T09:29:12.880Z,5.4
2018-12-27T09:30:15.011Z,5.4
2018-12-27T09:31:17.159Z,5.4
2018-12-27T09:32:19.331Z,5.4
2018-12-27T09:33:22.146Z,5.4
2018-12-27T09:34:24.301Z,5.4
2018-12-27T09:35:27.639Z,5.4
2018-12-27T09:36:29.794Z,5.4
2018-12-27T09:37:31.935Z,5.4
2018-12-27T09:38:34.074Z,5.4
2018-12-27T09:39:36.218Z,5.5
2018-12-27T09:40:38.362Z,5.5
2018-12-27T09:41:40.498Z,5.5
2018-12-27T09:42:42.643Z,5.5
2018-12-27T09:43:44.810Z,5.5
2018-12-27T09:44:46.968Z,5.4
2018-12-27T09:45:49.121Z,5.4
2018-12-27T09:46:51.292Z,5.4
2018-12-27T09:47:53.433Z,5.4
2018-12-27T09:48:55.571Z,5.4
2018-12-27T09:49:57.707Z,5.4
2018-12-27T09:50:59.845Z,5.4
2018-12-27T09:52:03.408Z,5.4
2018-12-27T09:53:05.545Z,5.5
2018-12-27T09:54:07.713Z,5.4
2018-12-27T09:55:09.825Z,5.4
2018-12-27T09:56:11.939Z,5.4
2018-12-27T09:57:14.079Z,5.4
2018-12-27T09:58:16.209Z,5.5
2018-12-27T09:59:19.030Z,5.5
2018-12-27T10:00:21.258Z,5.4
2018-12-27T10:01:23.401Z,5.4
2018-12-27T10:02:25.540Z,5.5
2018-12-27T10:03:28.120Z,5.5
2018-12-27T10:04:30.275Z,5.5
2018-12-27T10:05:35.458Z,5.5
2018-12-27T10:06:37.623Z,5.5
2018-12-27T10:07:39.779Z,5.5
2018-12-27T10:08:41.930Z,5.5
2018-12-27T10:09:44.068Z,5.5
2018-12-27T10:10:46.214Z,5.5
2018-12-27T10:11:48.367Z,5.5
2018-12-27T10:12:50.514Z,5.5
2018-12-27T10:13:52.641Z,5.5
2018-12-27T10:14:54.760Z,5.5
2018-12-27T10:15:56.898Z,5.5
2018-12-27T10:16:59.035Z,5.5
2018-12-27T10:18:01.184Z,5.5
2018-12-27T10:19:03.608Z,5.5
2018-12-27T10:20:05.738Z,5.5
2018-12-27T10:21:07.863Z,5.5
2018-12-27T10:22:10.074Z,5.6
2018-12-27T10:23:12.217Z,5.6
2018-12-27T10:24:14.355Z,5.5
2018-12-27T10:25:16.494Z,5.5
2018-12-27T10:26:18.670Z,5.6
2018-12-27T10:27:20.808Z,5.6
2018-12-27T10:28:23.084Z,5.5
2018-12-27T10:29:25.319Z,5.5
2018-12-27T10:30:27.467Z,5.5
2018-12-27T10:31:29.609Z,5.6
2018-12-27T10:32:31.757Z,5.6
2018-12-27T10:33:33.898Z,5.5
2018-12-27T10:34:36.025Z,5.6
2018-12-27T10:35:42.364Z,5.6
2018-12-27T10:36:45.156Z,5.6
2018-12-27T10:37:47.967Z,5.6
2018-12-27T10:38:50.111Z,5.6
2018-12-27T10:39:52.314Z,5.6
2018-12-27T10:40:54.457Z,5.6
2018-12-27T10:41:56.616Z,5.6
2018-12-27T10:42:58.748Z,5.6
2018-12-27T10:44:01.170Z,5.6
2018-12-27T10:45:03.299Z,5.6
2018-12-27T10:46:05.722Z,5.6
2018-12-27T10:47:07.867Z,5.6
2018-12-27T10:48:10.026Z,5.6
2018-12-27T10:49:12.164Z,5.6
2018-12-27T10:50:14.291Z,5.6
2018-12-27T10:51:16.410Z,5.6
2018-12-27T10:52:18.847Z,5.6
2018-12-27T10:53:21.073Z,5.6
2018-12-27T10:54:23.200Z,5.6
2018-12-27T10:55:25.335Z,5.6
2018-12-27T10:56:27.448Z,5.6
2018-12-27T10:57:29.885Z,5.6
2018-12-27T10:58:32.029Z,5.7
2018-12-27T10:59:34.191Z,5.7
2018-12-27T11:00:36.350Z,5.7
2018-12-27T11:01:38.501Z,5.7
2018-12-27T11:02:40.964Z,5.6
2018-12-27T11:03:43.092Z,5.7
2018-12-27T11:04:45.523Z,5.7
2018-12-27T11:05:50.044Z,5.7
2018-12-27T11:06:52.162Z,5.7
2018-12-27T11:07:54.311Z,5.7
2018-12-27T11:08:56.474Z,5.7
2018-12-27T11:09:58.920Z,5.7
2018-12-27T11:11:01.053Z,5.7
2018-12-27T11:12:03.580Z,5.7
2018-12-27T11:13:05.706Z,5.7
2018-12-27T11:14:07.864Z,5.7
2018-12-27T11:15:09.998Z,5.7
2018-12-27T11:16:12.411Z,5.7
2018-12-27T11:17:14.537Z,5.7
2018-12-27T11:18:16.687Z,5.7
2018-12-27T11:19:18.842Z,5.7
2018-12-27T11:20:20.965Z,5.8
2018-12-27T11:21:23.375Z,5.8
2018-12-27T11:22:25.540Z,5.7
2018-12-27T11:23:27.689Z,5.7
2018-12-27T11:24:30.122Z,5.7
2018-12-27T11:25:32.277Z,5.7
2018-12-27T11:26:34.417Z,5.8
2018-12-27T11:27:36.565Z,5.8
2018-12-27T11:28:38.716Z,5.8
2018-12-27T11:29:40.865Z,5.8
2018-12-27T11:30:43.000Z,5.8
2018-12-27T11:31:45.155Z,5.8
2018-12-27T11:32:47.573Z,5.8
2018-12-27T11:33:49.696Z,5.8
2018-12-27T11:34:51.817Z,5.8
2018-12-27T11:35:57.142Z,5.8
2018-12-27T11:36:59.275Z,5.8
2018-12-27T11:38:01.408Z,5.8
2018-12-27T11:39:03.557Z,5.8
2018-12-27T11:40:05.706Z,5.8
2018-12-27T11:41:08.514Z,5.8
2018-12-27T11:42:11.058Z,5.8
2018-12-27T11:43:13.522Z,5.8
2018-12-27T11:44:15.653Z,5.8
2018-12-27T11:45:17.792Z,5.8
2018-12-27T11:46:19.927Z,5.8
2018-12-27T11:47:22.066Z,5.8
2018-12-27T11:48:24.195Z,5.8
2018-12-27T11:49:26.347Z,5.8
2018-12-27T11:50:28.504Z,5.9
2018-12-27T11:51:30.637Z,5.9
2018-12-27T11:52:32.773Z,5.9
2018-12-27T11:53:34.910Z,5.9
2018-12-27T11:54:37.055Z,5.9
2018-12-27T11:55:39.195Z,5.9
2018-12-27T11:56:41.346Z,5.9
2018-12-27T11:57:43.526Z,5.9
2018-12-27T11:58:45.680Z,5.9
2018-12-27T11:59:47.815Z,5.9
2018-12-27T12:00:49.987Z,5.9
2018-12-27T12:01:52.139Z,5.9
2018-12-27T12:02:54.336Z,5.9
2018-12-27T12:03:56.476Z,5.9
2018-12-27T12:04:58.603Z,5.9
2018-12-27T12:06:04.861Z,5.9
2018-12-27T12:07:07.016Z,5.9
2018-12-27T12:08:09.225Z,5.9
2018-12-27T12:09:11.698Z,5.9
2018-12-27T12:10:13.863Z,5.9
2018-12-27T12:11:15.995Z,5.9
2018-12-27T12:12:18.141Z,5.9
2018-12-27T12:13:20.287Z,6
2018-12-27T12:14:22.428Z,5.9
2018-12-27T12:15:24.833Z,5.9
2018-12-27T12:16:26.984Z,6
2018-12-27T12:17:29.119Z,6
2018-12-27T12:18:31.249Z,6
2018-12-27T12:19:33.376Z,6
2018-12-27T12:20:37.526Z,6
2018-12-27T12:21:39.649Z,6
2018-12-27T12:22:41.794Z,6
2018-12-27T12:23:43.922Z,6
2018-12-27T12:24:46.337Z,6
2018-12-27T12:25:48.473Z,6.1
2018-12-27T12:26:50.619Z,6.1
2018-12-27T12:27:52.762Z,6.1
2018-12-27T12:28:54.904Z,6.1
2018-12-27T12:29:57.045Z,6.1
2018-12-27T12:30:59.214Z,6.1
2018-12-27T12:32:01.904Z,6.1
2018-12-27T12:33:04.037Z,6.2
2018-12-27T12:34:06.161Z,6.2
2018-12-27T12:35:08.307Z,6.2
2018-12-27T12:36:12.055Z,6.2
2018-12-27T12:37:15.408Z,6.2
2018-12-27T12:38:17.551Z,6.2
2018-12-27T12:39:19.708Z,6.2
2018-12-27T12:40:21.844Z,6.2
2018-12-27T12:41:23.985Z,6.2
2018-12-27T12:42:34.205Z,6.2
2018-12-27T12:43:36.722Z,6.2
2018-12-27T12:44:38.866Z,6.2
2018-12-27T12:45:41.030Z,6.2
2018-12-27T12:46:43.175Z,6.3
2018-12-27T12:47:45.329Z,6.3
2018-12-27T12:48:47.464Z,6.2
2018-12-27T12:49:49.599Z,6.3
2018-12-27T12:50:51.746Z,6.3
2018-12-27T12:51:54.229Z,6.3
2018-12-27T12:52:56.376Z,6.3
2018-12-27T12:53:58.542Z,6.3
2018-12-27T12:55:01.077Z,6.3
2018-12-27T12:56:03.216Z,6.3
2018-12-27T12:57:05.359Z,6.3
2018-12-27T12:58:07.519Z,6.3
2018-12-27T12:59:09.680Z,6.3
2018-12-27T13:00:11.820Z,6.3
2018-12-27T13:01:13.957Z,6.3
2018-12-27T13:02:16.370Z,6.4
2018-12-27T13:03:18.489Z,6.4
2018-12-27T13:04:20.628Z,6.4
2018-12-27T13:05:22.766Z,6.4
2018-12-27T13:06:24.902Z,6.4
2018-12-27T13:07:27.077Z,6.4
2018-12-27T13:08:29.220Z,6.4
2018-12-27T13:09:31.359Z,6.4
2018-12-27T13:10:33.523Z,6.3
2018-12-27T13:11:35.958Z,6.4
2018-12-27T13:12:38.089Z,6.3
2018-12-27T13:13:40.231Z,6.4
2018-12-27T13:14:42.363Z,6.4
2018-12-27T13:15:44.483Z,6.4
2018-12-27T13:16:46.608Z,6.4
2018-12-27T13:17:48.745Z,6.4
2018-12-27T13:18:50.899Z,6.4
2018-12-27T13:19:53.039Z,6.4
2018-12-27T13:20:55.199Z,6.4
2018-12-27T13:21:57.347Z,6.4
2018-12-27T13:22:59.763Z,6.4
2018-12-27T13:24:01.907Z,6.4
2018-12-27T13:25:04.040Z,6.4
2018-12-27T13:26:06.220Z,6.4
2018-12-27T13:27:08.374Z,6.4
2018-12-27T13:28:10.506Z,6.4
2018-12-27T13:29:12.647Z,6.4
2018-12-27T13:30:14.787Z,6.4
2018-12-27T13:31:16.940Z,6.4
2018-12-27T13:32:19.084Z,6.4
2018-12-27T13:33:21.888Z,6.4
2018-12-27T13:34:24.004Z,6.4
2018-12-27T13:35:26.151Z,6.4
2018-12-27T13:36:28.290Z,6.4
2018-12-27T13:37:30.430Z,6.4
2018-12-27T13:38:32.650Z,6.4
2018-12-27T13:39:35.163Z,6.4
2018-12-27T13:40:37.560Z,6.4
2018-12-27T13:41:39.696Z,6.4
2018-12-27T13:42:41.846Z,6.4
2018-12-27T13:43:43.994Z,6.4
2018-12-27T13:44:46.138Z,6.4
2018-12-27T13:45:48.266Z,6.4
2018-12-27T13:46:50.403Z,6.4
2018-12-27T13:47:54.578Z,6.4
2018-12-27T13:48:56.735Z,6.4
2018-12-27T13:49:58.895Z,6.4
2018-12-27T13:51:01.015Z,6.4
2018-12-27T13:52:03.438Z,6.4
2018-12-27T13:53:05.585Z,6.4
2018-12-27T13:54:07.731Z,6.4
2018-12-27T13:55:09.864Z,6.4
2018-12-27T13:56:12.015Z,6.4
2018-12-27T13:57:14.447Z,6.4
2018-12-27T13:58:16.629Z,6.4
2018-12-27T13:59:19.484Z,6.4
2018-12-27T14:00:21.603Z,6.3
2018-12-27T14:01:23.759Z,6.4
2018-12-27T14:02:25.910Z,6.4
2018-12-27T14:03:28.051Z,6.4
2018-12-27T14:04:30.199Z,6.4
2018-12-27T14:05:32.331Z,6.4
2018-12-27T14:06:34.456Z,6.3
2018-12-27T14:07:36.602Z,6.4
2018-12-27T14:08:38.728Z,6.4
2018-12-27T14:09:40.866Z,6.4
2018-12-27T14:10:43.003Z,6.4
2018-12-27T14:11:45.155Z,6.4
2018-12-27T14:12:47.287Z,6.4
2018-12-27T14:13:49.446Z,6.4
2018-12-27T14:14:51.968Z,6.4
2018-12-27T14:15:54.487Z,6.4
2018-12-27T14:16:56.631Z,6.4
2018-12-27T14:17:58.780Z,6.4
2018-12-27T14:19:01.379Z,6.4
2018-12-27T14:20:03.522Z,6.4
2018-12-27T14:21:05.666Z,6.4
2018-12-27T14:22:07.800Z,6.4